sensor_id;sensor_type;location;lat;lon;timestamp;temperature;humidity
8591;DHT22;4333;48.322;14.340;2023-10-31T00:01:00;16.80;99.90
8591;DHT22;4333;48.322;14.340;2023-10-31T00:03:32;16.90;99.90
8591;DHT22;4333;48.322;14.340;2023-10-31T00:06:03;16.80;99.90
8591;DHT22;4333;48.322;14.340;2023-10-31T00:08:31;16.80;99.90
8591;DHT22;4333;48.322;14.340;2023-10-31T00:11:10;16.60;99.90
8591;DHT22;4333;48.322;14.340;2023-10-31T00:13:38;16.40;99.90
8591;DHT22;4333;48.322;14.340;2023-10-31T00:16:20;16.30;99.90
8591;DHT22;4333;48.322;14.340;2023-10-31T00:18:55;16.10;99.90
8591;DHT22;4333;48.322;14.340;2023-10-31T00:21:41;16.00;99.90
8591;DHT22;4333;48.322;14.340;2023-10-31T00:24:09;15.80;99.90
8591;DHT22;4333;48.322;14.340;2023-10-31T00:26:43;15.60;99.90
8591;DHT22;4333;48.322;14.340;2023-10-31T00:29:15;15.50;99.90
8591;DHT22;4333;48.322;14.340;2023-10-31T00:31:50;15.40;99.90
8591;DHT22;4333;48.322;14.340;2023-10-31T00:34:25;15.30;99.90
8591;DHT22;4333;48.322;14.340;2023-10-31T00:37:17;15.20;99.90
8591;DHT22;4333;48.322;14.340;2023-10-31T00:40:06;15.10;99.90
8591;DHT22;4333;48.322;14.340;2023-10-31T00:42:43;15.10;99.90
8591;DHT22;4333;48.322;14.340;2023-10-31T00:45:14;15.00;99.90
8591;DHT22;4333;48.322;14.340;2023-10-31T00:47:49;15.00;99.90
8591;DHT22;4333;48.322;14.340;2023-10-31T00:50:18;14.90;99.90
8591;DHT22;4333;48.322;14.340;2023-10-31T00:53:05;14.90;99.90
8591;DHT22;4333;48.322;14.340;2023-10-31T00:55:38;14.80;99.90
8591;DHT22;4333;48.322;14.340;2023-10-31T00:58:27;14.80;99.90
8591;DHT22;4333;48.322;14.340;2023-10-31T01:00:55;14.70;99.90
8591;DHT22;4333;48.322;14.340;2023-10-31T01:03:21;14.70;99.90
8591;DHT22;4333;48.322;14.340;2023-10-31T01:05:47;14.70;99.90
8591;DHT22;4333;48.322;14.340;2023-10-31T01:08:13;14.60;99.90
8591;DHT22;4333;48.322;14.340;2023-10-31T01:10:41;14.60;99.90
8591;DHT22;4333;48.322;14.340;2023-10-31T01:13:07;14.50;99.90
8591;DHT22;4333;48.322;14.340;2023-10-31T01:15:33;14.50;99.90
8591;DHT22;4333;48.322;14.340;2023-10-31T01:18:01;14.40;99.90
8591;DHT22;4333;48.322;14.340;2023-10-31T01:20:27;14.30;99.90
8591;DHT22;4333;48.322;14.340;2023-10-31T01:22:53;14.20;99.90
8591;DHT22;4333;48.322;14.340;2023-10-31T01:25:18;14.00;99.90
8591;DHT22;4333;48.322;14.340;2023-10-31T01:27:44;13.90;99.90
8591;DHT22;4333;48.322;14.340;2023-10-31T01:30:10;13.80;99.90
8591;DHT22;4333;48.322;14.340;2023-10-31T01:32:56;13.70;99.90
8591;DHT22;4333;48.322;14.340;2023-10-31T01:35:21;13.70;99.90
8591;DHT22;4333;48.322;14.340;2023-10-31T01:37:47;13.60;99.90
8591;DHT22;4333;48.322;14.340;2023-10-31T01:40:13;13.50;99.90
8591;DHT22;4333;48.322;14.340;2023-10-31T01:42:39;13.40;99.90
8591;DHT22;4333;48.322;14.340;2023-10-31T01:45:10;13.40;99.90
8591;DHT22;4333;48.322;14.340;2023-10-31T01:47:42;13.30;99.90
8591;DHT22;4333;48.322;14.340;2023-10-31T01:50:26;13.30;99.90
8591;DHT22;4333;48.322;14.340;2023-10-31T01:53:02;13.20;99.90
8591;DHT22;4333;48.322;14.340;2023-10-31T01:55:34;13.10;99.90
8591;DHT22;4333;48.322;14.340;2023-10-31T01:58:00;13.10;99.90
8591;DHT22;4333;48.322;14.340;2023-10-31T02:00:26;13.10;99.90
8591;DHT22;4333;48.322;14.340;2023-10-31T02:02:55;13.00;99.90
8591;DHT22;4333;48.322;14.340;2023-10-31T02:05:21;13.00;99.90
8591;DHT22;4333;48.322;14.340;2023-10-31T02:07:46;13.00;99.90
8591;DHT22;4333;48.322;14.340;2023-10-31T02:10:12;12.90;99.90
8591;DHT22;4333;48.322;14.340;2023-10-31T02:12:38;12.90;99.90
8591;DHT22;4333;48.322;14.340;2023-10-31T02:15:04;12.90;99.90
8591;DHT22;4333;48.322;14.340;2023-10-31T02:17:30;12.90;99.90
8591;DHT22;4333;48.322;14.340;2023-10-31T02:19:56;12.80;99.90
8591;DHT22;4333;48.322;14.340;2023-10-31T02:22:22;12.80;99.90
8591;DHT22;4333;48.322;14.340;2023-10-31T02:24:48;12.80;99.90
8591;DHT22;4333;48.322;14.340;2023-10-31T02:27:15;12.80;99.90
8591;DHT22;4333;48.322;14.340;2023-10-31T02:29:42;12.80;99.90
8591;DHT22;4333;48.322;14.340;2023-10-31T02:32:08;12.80;99.90
8591;DHT22;4333;48.322;14.340;2023-10-31T02:34:34;12.80;99.90
8591;DHT22;4333;48.322;14.340;2023-10-31T02:37:00;12.80;99.90
8591;DHT22;4333;48.322;14.340;2023-10-31T02:39:26;12.70;99.90
8591;DHT22;4333;48.322;14.340;2023-10-31T02:41:51;12.80;99.90
8591;DHT22;4333;48.322;14.340;2023-10-31T02:44:17;12.80;99.90
8591;DHT22;4333;48.322;14.340;2023-10-31T02:46:43;12.80;99.90
8591;DHT22;4333;48.322;14.340;2023-10-31T02:49:08;12.80;99.90
8591;DHT22;4333;48.322;14.340;2023-10-31T02:51:35;12.80;99.90
8591;DHT22;4333;48.322;14.340;2023-10-31T02:54:02;12.80;99.90
8591;DHT22;4333;48.322;14.340;2023-10-31T02:56:27;12.80;99.90
8591;DHT22;4333;48.322;14.340;2023-10-31T02:58:56;12.80;99.90
8591;DHT22;4333;48.322;14.340;2023-10-31T03:01:23;12.80;99.90
8591;DHT22;4333;48.322;14.340;2023-10-31T03:03:48;12.80;99.90
8591;DHT22;4333;48.322;14.340;2023-10-31T03:06:14;12.80;99.90
8591;DHT22;4333;48.322;14.340;2023-10-31T03:08:40;12.80;99.90
8591;DHT22;4333;48.322;14.340;2023-10-31T03:11:05;12.70;99.90
8591;DHT22;4333;48.322;14.340;2023-10-31T03:13:31;12.80;99.90
8591;DHT22;4333;48.322;14.340;2023-10-31T03:15:57;12.70;99.90
8591;DHT22;4333;48.322;14.340;2023-10-31T03:18:24;12.70;99.90
8591;DHT22;4333;48.322;14.340;2023-10-31T03:20:50;12.70;99.90
8591;DHT22;4333;48.322;14.340;2023-10-31T03:23:18;12.70;99.90
8591;DHT22;4333;48.322;14.340;2023-10-31T03:25:44;12.70;99.90
8591;DHT22;4333;48.322;14.340;2023-10-31T03:28:20;12.70;99.90
8591;DHT22;4333;48.322;14.340;2023-10-31T03:30:50;12.70;99.90
8591;DHT22;4333;48.322;14.340;2023-10-31T03:33:16;12.70;99.90
8591;DHT22;4333;48.322;14.340;2023-10-31T03:35:43;12.70;99.90
8591;DHT22;4333;48.322;14.340;2023-10-31T03:38:12;12.70;99.90
8591;DHT22;4333;48.322;14.340;2023-10-31T03:40:37;12.70;99.90
8591;DHT22;4333;48.322;14.340;2023-10-31T03:43:04;12.70;99.90
8591;DHT22;4333;48.322;14.340;2023-10-31T03:45:30;12.70;99.90
8591;DHT22;4333;48.322;14.340;2023-10-31T03:47:56;12.60;99.90
8591;DHT22;4333;48.322;14.340;2023-10-31T03:50:22;12.60;99.90
8591;DHT22;4333;48.322;14.340;2023-10-31T03:52:48;12.60;99.90
8591;DHT22;4333;48.322;14.340;2023-10-31T03:55:13;12.60;99.90
8591;DHT22;4333;48.322;14.340;2023-10-31T03:57:39;12.50;99.90
8591;DHT22;4333;48.322;14.340;2023-10-31T04:00:05;12.50;99.90
8591;DHT22;4333;48.322;14.340;2023-10-31T04:02:33;12.40;99.90
8591;DHT22;4333;48.322;14.340;2023-10-31T04:05:01;12.40;99.90
8591;DHT22;4333;48.322;14.340;2023-10-31T04:07:33;12.30;99.90
8591;DHT22;4333;48.322;14.340;2023-10-31T04:09:58;12.30;99.90
8591;DHT22;4333;48.322;14.340;2023-10-31T04:12:24;12.20;99.90
8591;DHT22;4333;48.322;14.340;2023-10-31T04:14:50;12.10;99.90
8591;DHT22;4333;48.322;14.340;2023-10-31T04:17:16;11.90;99.90
8591;DHT22;4333;48.322;14.340;2023-10-31T04:19:48;11.80;99.90
8591;DHT22;4333;48.322;14.340;2023-10-31T04:22:13;11.70;99.90
8591;DHT22;4333;48.322;14.340;2023-10-31T04:24:39;11.70;99.90
8591;DHT22;4333;48.322;14.340;2023-10-31T04:27:06;11.60;99.90
8591;DHT22;4333;48.322;14.340;2023-10-31T04:29:37;11.60;99.90
8591;DHT22;4333;48.322;14.340;2023-10-31T04:32:06;11.50;99.90
8591;DHT22;4333;48.322;14.340;2023-10-31T04:34:32;11.50;99.90
8591;DHT22;4333;48.322;14.340;2023-10-31T04:36:59;11.50;99.90
8591;DHT22;4333;48.322;14.340;2023-10-31T04:39:38;11.40;99.90
8591;DHT22;4333;48.322;14.340;2023-10-31T04:42:08;11.40;99.90
8591;DHT22;4333;48.322;14.340;2023-10-31T04:44:39;11.30;99.90
8591;DHT22;4333;48.322;14.340;2023-10-31T04:47:05;11.30;99.90
8591;DHT22;4333;48.322;14.340;2023-10-31T04:49:35;11.30;99.90
8591;DHT22;4333;48.322;14.340;2023-10-31T04:52:01;11.30;99.90
8591;DHT22;4333;48.322;14.340;2023-10-31T04:54:27;11.20;99.90
8591;DHT22;4333;48.322;14.340;2023-10-31T04:56:52;11.20;99.90
8591;DHT22;4333;48.322;14.340;2023-10-31T04:59:20;11.30;99.90
8591;DHT22;4333;48.322;14.340;2023-10-31T05:01:50;11.20;99.90
8591;DHT22;4333;48.322;14.340;2023-10-31T05:04:18;11.30;99.90
8591;DHT22;4333;48.322;14.340;2023-10-31T05:06:44;11.30;99.90
8591;DHT22;4333;48.322;14.340;2023-10-31T05:09:10;11.20;99.90
8591;DHT22;4333;48.322;14.340;2023-10-31T05:11:37;11.20;99.90
8591;DHT22;4333;48.322;14.340;2023-10-31T05:14:04;11.20;99.90
8591;DHT22;4333;48.322;14.340;2023-10-31T05:16:30;11.20;99.90
8591;DHT22;4333;48.322;14.340;2023-10-31T05:18:58;11.20;99.90
8591;DHT22;4333;48.322;14.340;2023-10-31T05:21:29;11.20;99.90
8591;DHT22;4333;48.322;14.340;2023-10-31T05:23:55;11.20;99.90
8591;DHT22;4333;48.322;14.340;2023-10-31T05:26:22;11.10;99.90
8591;DHT22;4333;48.322;14.340;2023-10-31T05:28:47;11.20;99.90
8591;DHT22;4333;48.322;14.340;2023-10-31T05:31:16;11.10;99.90
8591;DHT22;4333;48.322;14.340;2023-10-31T05:33:42;11.20;99.90
8591;DHT22;4333;48.322;14.340;2023-10-31T05:36:18;11.20;99.90
8591;DHT22;4333;48.322;14.340;2023-10-31T05:38:44;11.20;99.90
8591;DHT22;4333;48.322;14.340;2023-10-31T05:41:14;11.20;99.90
8591;DHT22;4333;48.322;14.340;2023-10-31T05:43:43;11.20;99.90
8591;DHT22;4333;48.322;14.340;2023-10-31T05:46:24;11.30;99.90
8591;DHT22;4333;48.322;14.340;2023-10-31T05:48:55;11.30;99.90
8591;DHT22;4333;48.322;14.340;2023-10-31T05:51:23;11.20;99.90
8591;DHT22;4333;48.322;14.340;2023-10-31T05:53:51;11.20;99.90
8591;DHT22;4333;48.322;14.340;2023-10-31T05:56:16;11.20;99.90
8591;DHT22;4333;48.322;14.340;2023-10-31T05:58:43;11.20;99.90
8591;DHT22;4333;48.322;14.340;2023-10-31T06:01:08;11.10;99.90
8591;DHT22;4333;48.322;14.340;2023-10-31T06:03:34;11.20;99.90
8591;DHT22;4333;48.322;14.340;2023-10-31T06:06:00;11.20;99.90
8591;DHT22;4333;48.322;14.340;2023-10-31T06:08:28;11.20;99.90
8591;DHT22;4333;48.322;14.340;2023-10-31T06:10:56;11.20;99.90
8591;DHT22;4333;48.322;14.340;2023-10-31T06:13:23;11.20;99.90
8591;DHT22;4333;48.322;14.340;2023-10-31T06:15:56;11.20;99.90
8591;DHT22;4333;48.322;14.340;2023-10-31T06:18:34;11.20;99.90
8591;DHT22;4333;48.322;14.340;2023-10-31T06:21:01;11.20;99.90
8591;DHT22;4333;48.322;14.340;2023-10-31T06:23:30;11.10;99.90
8591;DHT22;4333;48.322;14.340;2023-10-31T06:26:11;11.20;99.90
8591;DHT22;4333;48.322;14.340;2023-10-31T06:28:37;11.20;99.90
8591;DHT22;4333;48.322;14.340;2023-10-31T06:31:05;11.10;99.90
8591;DHT22;4333;48.322;14.340;2023-10-31T06:33:57;11.20;99.90
8591;DHT22;4333;48.322;14.340;2023-10-31T06:36:35;11.10;99.90
8591;DHT22;4333;48.322;14.340;2023-10-31T06:39:00;11.10;99.90
8591;DHT22;4333;48.322;14.340;2023-10-31T06:41:33;11.10;99.90
8591;DHT22;4333;48.322;14.340;2023-10-31T06:43:59;11.10;99.90
8591;DHT22;4333;48.322;14.340;2023-10-31T06:46:46;11.10;99.90
8591;DHT22;4333;48.322;14.340;2023-10-31T06:49:20;11.20;99.90
8591;DHT22;4333;48.322;14.340;2023-10-31T06:51:52;11.20;99.90
8591;DHT22;4333;48.322;14.340;2023-10-31T06:54:21;11.10;99.90
8591;DHT22;4333;48.322;14.340;2023-10-31T06:56:48;11.10;99.90
8591;DHT22;4333;48.322;14.340;2023-10-31T06:59:15;11.10;99.90
8591;DHT22;4333;48.322;14.340;2023-10-31T07:01:50;11.10;99.90
8591;DHT22;4333;48.322;14.340;2023-10-31T07:04:19;11.10;99.90
8591;DHT22;4333;48.322;14.340;2023-10-31T07:06:46;11.10;99.90
8591;DHT22;4333;48.322;14.340;2023-10-31T07:09:12;11.20;99.90
8591;DHT22;4333;48.322;14.340;2023-10-31T07:11:37;11.20;99.90
8591;DHT22;4333;48.322;14.340;2023-10-31T07:14:05;11.30;99.90
8591;DHT22;4333;48.322;14.340;2023-10-31T07:16:32;11.30;99.90
8591;DHT22;4333;48.322;14.340;2023-10-31T07:18:58;11.30;99.90
8591;DHT22;4333;48.322;14.340;2023-10-31T07:21:24;11.40;99.90
8591;DHT22;4333;48.322;14.340;2023-10-31T07:23:51;11.30;99.90
8591;DHT22;4333;48.322;14.340;2023-10-31T07:26:21;11.30;99.90
8591;DHT22;4333;48.322;14.340;2023-10-31T07:28:48;11.30;99.90
8591;DHT22;4333;48.322;14.340;2023-10-31T07:31:14;11.40;99.90
8591;DHT22;4333;48.322;14.340;2023-10-31T07:33:44;11.40;99.90
8591;DHT22;4333;48.322;14.340;2023-10-31T07:36:10;11.40;99.90
8591;DHT22;4333;48.322;14.340;2023-10-31T07:38:36;11.40;99.90
8591;DHT22;4333;48.322;14.340;2023-10-31T07:41:02;11.50;99.90
8591;DHT22;4333;48.322;14.340;2023-10-31T07:43:28;11.40;99.90
8591;DHT22;4333;48.322;14.340;2023-10-31T07:45:55;11.50;99.90
8591;DHT22;4333;48.322;14.340;2023-10-31T07:48:21;11.40;99.90
8591;DHT22;4333;48.322;14.340;2023-10-31T07:50:47;11.40;99.90
8591;DHT22;4333;48.322;14.340;2023-10-31T07:53:12;11.50;99.90
8591;DHT22;4333;48.322;14.340;2023-10-31T07:55:38;11.50;99.90
8591;DHT22;4333;48.322;14.340;2023-10-31T07:58:04;11.40;99.90
8591;DHT22;4333;48.322;14.340;2023-10-31T08:01:03;11.50;99.90
8591;DHT22;4333;48.322;14.340;2023-10-31T08:03:36;11.40;99.90
8591;DHT22;4333;48.322;14.340;2023-10-31T08:06:12;11.40;99.90
8591;DHT22;4333;48.322;14.340;2023-10-31T08:08:38;11.40;99.90
8591;DHT22;4333;48.322;14.340;2023-10-31T08:11:06;11.50;99.90
8591;DHT22;4333;48.322;14.340;2023-10-31T08:13:32;11.50;99.90
8591;DHT22;4333;48.322;14.340;2023-10-31T08:16:24;11.50;99.90
8591;DHT22;4333;48.322;14.340;2023-10-31T08:19:07;11.40;99.90
8591;DHT22;4333;48.322;14.340;2023-10-31T08:21:33;11.40;99.90
8591;DHT22;4333;48.322;14.340;2023-10-31T08:24:04;11.50;99.90
8591;DHT22;4333;48.322;14.340;2023-10-31T08:26:34;11.60;99.90
8591;DHT22;4333;48.322;14.340;2023-10-31T08:29:05;11.70;99.90
8591;DHT22;4333;48.322;14.340;2023-10-31T08:31:33;11.60;99.90
8591;DHT22;4333;48.322;14.340;2023-10-31T08:33:58;11.60;99.90
8591;DHT22;4333;48.322;14.340;2023-10-31T08:36:29;11.60;99.90
8591;DHT22;4333;48.322;14.340;2023-10-31T08:38:56;11.60;99.90
8591;DHT22;4333;48.322;14.340;2023-10-31T08:41:27;11.60;99.90
8591;DHT22;4333;48.322;14.340;2023-10-31T08:43:53;11.70;99.90
8591;DHT22;4333;48.322;14.340;2023-10-31T08:46:19;11.60;99.90
8591;DHT22;4333;48.322;14.340;2023-10-31T08:48:50;11.70;99.90
8591;DHT22;4333;48.322;14.340;2023-10-31T08:51:15;11.70;99.90
8591;DHT22;4333;48.322;14.340;2023-10-31T08:53:43;11.70;99.90
8591;DHT22;4333;48.322;14.340;2023-10-31T08:56:14;11.80;99.90
8591;DHT22;4333;48.322;14.340;2023-10-31T08:58:45;11.80;99.90
8591;DHT22;4333;48.322;14.340;2023-10-31T09:01:11;11.70;99.90
8591;DHT22;4333;48.322;14.340;2023-10-31T09:03:36;11.60;99.90
8591;DHT22;4333;48.322;14.340;2023-10-31T09:06:03;11.60;99.90
8591;DHT22;4333;48.322;14.340;2023-10-31T09:08:28;11.60;99.90
8591;DHT22;4333;48.322;14.340;2023-10-31T09:10:54;11.50;99.90
8591;DHT22;4333;48.322;14.340;2023-10-31T09:13:25;11.50;99.90
8591;DHT22;4333;48.322;14.340;2023-10-31T09:15:51;11.40;99.90
8591;DHT22;4333;48.322;14.340;2023-10-31T09:18:20;11.30;99.90
8591;DHT22;4333;48.322;14.340;2023-10-31T09:20:49;11.30;99.90
8591;DHT22;4333;48.322;14.340;2023-10-31T09:23:18;11.20;99.90
8591;DHT22;4333;48.322;14.340;2023-10-31T09:25:44;11.20;99.90
8591;DHT22;4333;48.322;14.340;2023-10-31T09:28:25;11.20;99.90
8591;DHT22;4333;48.322;14.340;2023-10-31T09:30:52;11.20;99.90
8591;DHT22;4333;48.322;14.340;2023-10-31T09:33:18;11.10;99.90
8591;DHT22;4333;48.322;14.340;2023-10-31T09:35:46;11.10;99.90
8591;DHT22;4333;48.322;14.340;2023-10-31T09:38:11;11.10;99.90
8591;DHT22;4333;48.322;14.340;2023-10-31T09:40:38;11.10;99.90
8591;DHT22;4333;48.322;14.340;2023-10-31T09:43:06;11.10;99.90
8591;DHT22;4333;48.322;14.340;2023-10-31T09:45:32;11.10;99.90
8591;DHT22;4333;48.322;14.340;2023-10-31T09:48:01;11.10;99.90
8591;DHT22;4333;48.322;14.340;2023-10-31T09:50:28;11.10;99.90
8591;DHT22;4333;48.322;14.340;2023-10-31T09:52:56;11.10;99.90
8591;DHT22;4333;48.322;14.340;2023-10-31T09:55:44;11.00;99.90
8591;DHT22;4333;48.322;14.340;2023-10-31T09:58:11;11.00;99.90
8591;DHT22;4333;48.322;14.340;2023-10-31T10:00:37;11.00;99.90
8591;DHT22;4333;48.322;14.340;2023-10-31T10:03:07;11.00;99.90
8591;DHT22;4333;48.322;14.340;2023-10-31T10:05:36;11.00;99.90
8591;DHT22;4333;48.322;14.340;2023-10-31T10:08:07;11.00;99.90
8591;DHT22;4333;48.322;14.340;2023-10-31T10:10:43;11.00;99.90
8591;DHT22;4333;48.322;14.340;2023-10-31T10:13:30;11.00;99.90
8591;DHT22;4333;48.322;14.340;2023-10-31T10:15:57;10.90;99.90
8591;DHT22;4333;48.322;14.340;2023-10-31T10:18:34;10.80;99.90
8591;DHT22;4333;48.322;14.340;2023-10-31T10:21:09;10.90;99.90
8591;DHT22;4333;48.322;14.340;2023-10-31T10:23:35;10.90;99.90
8591;DHT22;4333;48.322;14.340;2023-10-31T10:26:07;10.90;99.90
8591;DHT22;4333;48.322;14.340;2023-10-31T10:28:36;10.80;99.90
8591;DHT22;4333;48.322;14.340;2023-10-31T10:31:03;10.80;99.90
8591;DHT22;4333;48.322;14.340;2023-10-31T10:34:05;10.70;99.90
8591;DHT22;4333;48.322;14.340;2023-10-31T10:36:33;10.70;99.90
8591;DHT22;4333;48.322;14.340;2023-10-31T10:39:06;10.70;99.90
8591;DHT22;4333;48.322;14.340;2023-10-31T10:41:54;10.70;99.90
8591;DHT22;4333;48.322;14.340;2023-10-31T10:44:47;10.70;99.90
8591;DHT22;4333;48.322;14.340;2023-10-31T10:47:18;10.60;99.90
8591;DHT22;4333;48.322;14.340;2023-10-31T10:49:51;10.60;99.90
8591;DHT22;4333;48.322;14.340;2023-10-31T10:52:41;10.70;99.90
8591;DHT22;4333;48.322;14.340;2023-10-31T10:55:20;10.70;99.90
8591;DHT22;4333;48.322;14.340;2023-10-31T10:58:08;10.70;99.90
8591;DHT22;4333;48.322;14.340;2023-10-31T11:00:39;10.60;99.90
8591;DHT22;4333;48.322;14.340;2023-10-31T11:03:07;10.60;99.90
8591;DHT22;4333;48.322;14.340;2023-10-31T11:05:35;10.50;99.90
8591;DHT22;4333;48.322;14.340;2023-10-31T11:08:04;10.60;99.90
8591;DHT22;4333;48.322;14.340;2023-10-31T11:10:35;10.60;99.90
8591;DHT22;4333;48.322;14.340;2023-10-31T11:13:01;10.60;99.90
8591;DHT22;4333;48.322;14.340;2023-10-31T11:15:34;10.70;99.90
8591;DHT22;4333;48.322;14.340;2023-10-31T11:18:01;10.70;99.90
8591;DHT22;4333;48.322;14.340;2023-10-31T11:20:28;10.80;99.90
8591;DHT22;4333;48.322;14.340;2023-10-31T11:23:00;10.80;99.90
8591;DHT22;4333;48.322;14.340;2023-10-31T11:25:33;10.90;99.90
8591;DHT22;4333;48.322;14.340;2023-10-31T11:28:16;10.80;99.90
8591;DHT22;4333;48.322;14.340;2023-10-31T11:30:54;10.80;99.90
8591;DHT22;4333;48.322;14.340;2023-10-31T11:33:32;10.70;99.90
8591;DHT22;4333;48.322;14.340;2023-10-31T11:36:36;10.70;99.90
8591;DHT22;4333;48.322;14.340;2023-10-31T11:39:21;10.70;99.90
8591;DHT22;4333;48.322;14.340;2023-10-31T11:41:54;10.70;99.90
8591;DHT22;4333;48.322;14.340;2023-10-31T11:44:55;10.70;99.90
8591;DHT22;4333;48.322;14.340;2023-10-31T11:47:29;10.70;99.90
8591;DHT22;4333;48.322;14.340;2023-10-31T11:50:10;10.70;99.90
8591;DHT22;4333;48.322;14.340;2023-10-31T11:52:36;10.70;99.90
8591;DHT22;4333;48.322;14.340;2023-10-31T11:55:02;10.70;99.90
8591;DHT22;4333;48.322;14.340;2023-10-31T11:57:28;10.70;99.90
8591;DHT22;4333;48.322;14.340;2023-10-31T11:59:55;10.60;99.90
8591;DHT22;4333;48.322;14.340;2023-10-31T12:02:21;10.70;99.90
8591;DHT22;4333;48.322;14.340;2023-10-31T12:05:13;10.60;99.90
8591;DHT22;4333;48.322;14.340;2023-10-31T12:07:59;10.60;99.90
8591;DHT22;4333;48.322;14.340;2023-10-31T12:10:28;10.50;99.90
8591;DHT22;4333;48.322;14.340;2023-10-31T12:12:56;10.50;99.90
8591;DHT22;4333;48.322;14.340;2023-10-31T12:15:25;10.50;99.90
8591;DHT22;4333;48.322;14.340;2023-10-31T12:17:52;10.40;99.90
8591;DHT22;4333;48.322;14.340;2023-10-31T12:20:18;10.50;99.90
8591;DHT22;4333;48.322;14.340;2023-10-31T12:22:44;10.60;99.90
8591;DHT22;4333;48.322;14.340;2023-10-31T12:25:11;10.60;99.90
8591;DHT22;4333;48.322;14.340;2023-10-31T12:27:45;10.70;99.90
8591;DHT22;4333;48.322;14.340;2023-10-31T12:30:13;10.70;99.90
8591;DHT22;4333;48.322;14.340;2023-10-31T12:33:08;10.80;99.90
8591;DHT22;4333;48.322;14.340;2023-10-31T12:35:36;10.80;99.90
8591;DHT22;4333;48.322;14.340;2023-10-31T12:38:02;10.80;99.90
8591;DHT22;4333;48.322;14.340;2023-10-31T12:40:42;10.80;99.90
8591;DHT22;4333;48.322;14.340;2023-10-31T12:43:13;10.70;99.90
8591;DHT22;4333;48.322;14.340;2023-10-31T12:45:39;10.80;99.90
8591;DHT22;4333;48.322;14.340;2023-10-31T12:48:08;10.80;99.90
8591;DHT22;4333;48.322;14.340;2023-10-31T12:50:35;10.70;99.90
8591;DHT22;4333;48.322;14.340;2023-10-31T12:53:04;10.80;99.90
8591;DHT22;4333;48.322;14.340;2023-10-31T12:55:42;10.80;99.90
8591;DHT22;4333;48.322;14.340;2023-10-31T12:58:09;10.80;99.90
8591;DHT22;4333;48.322;14.340;2023-10-31T13:00:50;10.80;99.90
8591;DHT22;4333;48.322;14.340;2023-10-31T13:03:17;10.80;99.90
8591;DHT22;4333;48.322;14.340;2023-10-31T13:05:44;10.80;99.90
8591;DHT22;4333;48.322;14.340;2023-10-31T13:08:16;10.80;99.90
8591;DHT22;4333;48.322;14.340;2023-10-31T13:10:42;10.80;99.90
8591;DHT22;4333;48.322;14.340;2023-10-31T13:13:09;10.90;99.90
8591;DHT22;4333;48.322;14.340;2023-10-31T13:15:40;10.80;99.90
8591;DHT22;4333;48.322;14.340;2023-10-31T13:18:07;10.80;99.90
8591;DHT22;4333;48.322;14.340;2023-10-31T13:20:35;10.80;99.90
8591;DHT22;4333;48.322;14.340;2023-10-31T13:23:03;10.80;99.90
8591;DHT22;4333;48.322;14.340;2023-10-31T13:25:29;10.80;99.90
8591;DHT22;4333;48.322;14.340;2023-10-31T13:27:59;10.80;99.90
8591;DHT22;4333;48.322;14.340;2023-10-31T13:30:26;10.70;99.90
8591;DHT22;4333;48.322;14.340;2023-10-31T13:32:55;10.80;99.90
8591;DHT22;4333;48.322;14.340;2023-10-31T13:35:25;10.80;99.90
8591;DHT22;4333;48.322;14.340;2023-10-31T13:37:51;10.80;99.90
8591;DHT22;4333;48.322;14.340;2023-10-31T13:40:18;10.80;99.90
8591;DHT22;4333;48.322;14.340;2023-10-31T13:42:46;10.80;99.90
8591;DHT22;4333;48.322;14.340;2023-10-31T13:45:28;10.80;99.90
8591;DHT22;4333;48.322;14.340;2023-10-31T13:47:53;10.80;99.90
8591;DHT22;4333;48.322;14.340;2023-10-31T13:50:19;10.80;99.90
8591;DHT22;4333;48.322;14.340;2023-10-31T13:52:45;10.80;99.90
8591;DHT22;4333;48.322;14.340;2023-10-31T13:55:11;10.80;99.90
8591;DHT22;4333;48.322;14.340;2023-10-31T13:57:37;10.80;99.90
8591;DHT22;4333;48.322;14.340;2023-10-31T14:00:07;10.80;99.90
8591;DHT22;4333;48.322;14.340;2023-10-31T14:02:37;10.80;99.90
8591;DHT22;4333;48.322;14.340;2023-10-31T14:05:04;10.90;99.90
8591;DHT22;4333;48.322;14.340;2023-10-31T14:07:37;10.90;99.90
8591;DHT22;4333;48.322;14.340;2023-10-31T14:10:03;10.90;99.90
8591;DHT22;4333;48.322;14.340;2023-10-31T14:12:29;10.90;99.90
8591;DHT22;4333;48.322;14.340;2023-10-31T14:14:57;10.90;99.90
8591;DHT22;4333;48.322;14.340;2023-10-31T14:17:23;10.90;99.90
8591;DHT22;4333;48.322;14.340;2023-10-31T14:19:50;10.80;99.90
8591;DHT22;4333;48.322;14.340;2023-10-31T14:22:15;10.70;99.90
8591;DHT22;4333;48.322;14.340;2023-10-31T14:24:41;10.70;99.90
8591;DHT22;4333;48.322;14.340;2023-10-31T14:27:08;10.70;99.90
8591;DHT22;4333;48.322;14.340;2023-10-31T14:29:33;10.70;99.90
8591;DHT22;4333;48.322;14.340;2023-10-31T14:32:09;10.60;99.90
8591;DHT22;4333;48.322;14.340;2023-10-31T14:34:36;10.60;99.90
8591;DHT22;4333;48.322;14.340;2023-10-31T14:37:02;10.60;99.90
8591;DHT22;4333;48.322;14.340;2023-10-31T14:39:27;10.70;99.90
8591;DHT22;4333;48.322;14.340;2023-10-31T14:41:54;10.60;99.90
8591;DHT22;4333;48.322;14.340;2023-10-31T14:44:20;10.70;99.90
8591;DHT22;4333;48.322;14.340;2023-10-31T14:47:05;10.60;99.90
8591;DHT22;4333;48.322;14.340;2023-10-31T14:49:37;10.60;99.90
8591;DHT22;4333;48.322;14.340;2023-10-31T14:52:07;10.60;99.90
8591;DHT22;4333;48.322;14.340;2023-10-31T14:54:43;10.60;99.90
8591;DHT22;4333;48.322;14.340;2023-10-31T14:57:40;10.60;99.90
8591;DHT22;4333;48.322;14.340;2023-10-31T15:00:06;10.60;99.90
8591;DHT22;4333;48.322;14.340;2023-10-31T15:02:37;10.50;99.90
8591;DHT22;4333;48.322;14.340;2023-10-31T15:05:03;10.60;99.90
8591;DHT22;4333;48.322;14.340;2023-10-31T15:07:29;10.60;99.90
8591;DHT22;4333;48.322;14.340;2023-10-31T15:09:55;10.60;99.90
8591;DHT22;4333;48.322;14.340;2023-10-31T15:12:27;10.60;99.90
8591;DHT22;4333;48.322;14.340;2023-10-31T15:14:56;10.50;99.90
8591;DHT22;4333;48.322;14.340;2023-10-31T15:17:22;10.60;99.90
8591;DHT22;4333;48.322;14.340;2023-10-31T15:19:48;10.60;99.90
8591;DHT22;4333;48.322;14.340;2023-10-31T15:22:18;10.60;99.90
8591;DHT22;4333;48.322;14.340;2023-10-31T15:24:44;10.60;99.90
8591;DHT22;4333;48.322;14.340;2023-10-31T15:27:11;10.60;99.90
8591;DHT22;4333;48.322;14.340;2023-10-31T15:29:41;10.60;99.90
8591;DHT22;4333;48.322;14.340;2023-10-31T15:32:07;10.60;99.90
8591;DHT22;4333;48.322;14.340;2023-10-31T15:34:32;10.60;99.90
8591;DHT22;4333;48.322;14.340;2023-10-31T15:37:00;10.60;99.90
8591;DHT22;4333;48.322;14.340;2023-10-31T15:39:29;10.60;99.90
8591;DHT22;4333;48.322;14.340;2023-10-31T15:41:55;10.60;99.90
8591;DHT22;4333;48.322;14.340;2023-10-31T15:44:21;10.60;99.90
8591;DHT22;4333;48.322;14.340;2023-10-31T15:46:52;10.60;99.90
8591;DHT22;4333;48.322;14.340;2023-10-31T15:49:18;10.60;99.90
8591;DHT22;4333;48.322;14.340;2023-10-31T15:51:47;10.60;99.90
8591;DHT22;4333;48.322;14.340;2023-10-31T15:54:13;10.60;99.90
8591;DHT22;4333;48.322;14.340;2023-10-31T15:56:39;10.60;99.90
8591;DHT22;4333;48.322;14.340;2023-10-31T15:59:10;10.60;99.90
8591;DHT22;4333;48.322;14.340;2023-10-31T16:01:37;10.70;99.90